createdAt,value
2018-11-11T00:00:03.208Z,12.47
2018-11-11T00:01:38.167Z,11.17
2018-11-11T00:03:13.064Z,12.03
2018-11-11T00:04:47.925Z,11.80
2018-11-11T00:06:23.002Z,12.70
2018-11-11T00:08:12.824Z,11.40
2018-11-11T00:09:49.583Z,11.13
2018-11-11T00:11:24.471Z,10.83
2018-11-11T00:12:59.423Z,12.10
2018-11-11T00:14:34.564Z,12.30
2018-11-11T00:16:09.469Z,11.73
2018-11-11T00:17:45.362Z,12.17
2018-11-11T00:19:20.359Z,12.40
2018-11-11T00:20:55.254Z,12.63
2018-11-11T00:22:30.202Z,12.20
2018-11-11T00:24:05.147Z,12.47
2018-11-11T00:25:40.014Z,12.27
2018-11-11T00:27:14.924Z,11.90
2018-11-11T00:28:50.024Z,12.70
2018-11-11T00:30:24.766Z,12.30
2018-11-11T00:31:59.610Z,13.17
2018-11-11T00:33:34.700Z,12.00
2018-11-11T00:35:09.709Z,12.30
2018-11-11T00:36:44.567Z,12.33
2018-11-11T00:38:19.498Z,11.93
2018-11-11T00:39:54.370Z,11.27
2018-11-11T00:41:29.267Z,12.50
2018-11-11T00:43:04.197Z,11.93
2018-11-11T00:44:39.092Z,12.20
2018-11-11T00:46:13.962Z,13.37
2018-11-11T00:47:48.810Z,12.47
2018-11-11T00:49:23.705Z,13.50
2018-11-11T00:50:58.611Z,13.30
2018-11-11T00:52:33.466Z,12.60
2018-11-11T00:54:08.395Z,12.83
2018-11-11T00:55:43.263Z,11.87
2018-11-11T00:57:18.240Z,12.60
2018-11-11T00:58:53.173Z,13.03
2018-11-11T01:00:28.088Z,13.07
2018-11-11T01:02:03.054Z,13.67
2018-11-11T01:03:38.089Z,12.97
2018-11-11T01:05:13.771Z,12.73
2018-11-11T01:06:48.851Z,11.53
2018-11-11T01:08:23.737Z,12.50
2018-11-11T01:09:58.655Z,12.10
2018-11-11T01:11:33.520Z,11.77
2018-11-11T01:13:08.688Z,11.43
2018-11-11T01:14:43.687Z,11.60
2018-11-11T01:16:18.718Z,11.83
2018-11-11T01:17:53.611Z,10.23
2018-11-11T01:19:28.495Z,11.33
2018-11-11T01:21:03.515Z,11.27
2018-11-11T01:22:38.518Z,11.63
2018-11-11T01:24:13.430Z,11.33
2018-11-11T01:25:48.390Z,10.37
2018-11-11T01:27:23.254Z,10.30
2018-11-11T01:28:58.177Z,10.60
2018-11-11T01:30:33.049Z,11.50
2018-11-11T01:32:07.951Z,11.30
2018-11-11T01:33:42.848Z,11.37
2018-11-11T01:35:18.001Z,11.27
2018-11-11T01:36:52.975Z,10.67
2018-11-11T01:38:27.939Z,10.47
2018-11-11T01:40:04.056Z,10.03
2018-11-11T01:41:38.947Z,11.03
2018-11-11T01:43:13.995Z,10.83
2018-11-11T01:44:48.933Z,11.37
2018-11-11T01:46:23.939Z,10.17
2018-11-11T01:47:58.819Z,10.43
2018-11-11T01:49:33.758Z,11.17
2018-11-11T01:51:08.640Z,10.80
2018-11-11T01:52:43.569Z,10.70
2018-11-11T01:54:18.467Z,11.23
2018-11-11T01:55:53.354Z,11.20
2018-11-11T01:57:28.192Z,10.90
2018-11-11T01:59:03.293Z,10.60
2018-11-11T02:00:38.215Z,11.57
2018-11-11T02:02:13.063Z,10.87
2018-11-11T02:03:47.956Z,11.63
2018-11-11T02:05:22.829Z,10.77
2018-11-11T02:06:57.792Z,10.50
2018-11-11T02:08:32.670Z,11.10
2018-11-11T02:10:08.835Z,11.50
2018-11-11T02:11:43.861Z,10.60
2018-11-11T02:13:18.767Z,10.67
2018-11-11T02:14:53.674Z,9.40
2018-11-11T02:16:28.540Z,9.80
2018-11-11T02:18:03.410Z,9.43
2018-11-11T02:19:38.416Z,11.20
2018-11-11T02:21:13.398Z,10.23
2018-11-11T02:22:49.272Z,10.13
2018-11-11T02:24:24.167Z,9.73
2018-11-11T02:25:59.055Z,10.03
2018-11-11T02:27:33.975Z,10.13
2018-11-11T02:29:08.960Z,9.87
2018-11-11T02:30:43.869Z,10.20
2018-11-11T02:32:18.730Z,10.90
2018-11-11T02:33:53.750Z,10.83
2018-11-11T02:35:28.734Z,10.43
2018-11-11T02:37:03.819Z,9.83
2018-11-11T02:38:38.751Z,10.50
2018-11-11T02:40:17.725Z,10.67
2018-11-11T02:41:52.574Z,11.20
2018-11-11T02:43:27.507Z,11.10
2018-11-11T02:45:02.418Z,11.37
2018-11-11T02:46:37.399Z,11.33
2018-11-11T02:48:12.457Z,11.50
2018-11-11T02:49:47.331Z,11.20
2018-11-11T02:51:22.291Z,10.93
2018-11-11T02:52:57.316Z,11.07
2018-11-11T02:54:32.282Z,12.70
2018-11-11T02:56:07.654Z,12.43
2018-11-11T02:57:42.898Z,12.77
2018-11-11T02:59:17.790Z,12.43
2018-11-11T03:00:52.716Z,12.07
2018-11-11T03:02:27.627Z,11.93
2018-11-11T03:04:02.552Z,13.00
2018-11-11T03:05:37.435Z,12.40
2018-11-11T03:07:12.306Z,12.80
2018-11-11T03:08:47.242Z,12.60
2018-11-11T03:10:22.118Z,12.03
2018-11-11T03:11:57.057Z,12.53
2018-11-11T03:13:32.094Z,12.00
2018-11-11T03:15:07.939Z,10.83
2018-11-11T03:16:42.815Z,12.03
2018-11-11T03:18:17.700Z,11.23
2018-11-11T03:19:52.598Z,12.07
2018-11-11T03:21:27.590Z,11.37
2018-11-11T03:23:02.548Z,11.20
2018-11-11T03:24:37.542Z,12.10
2018-11-11T03:26:12.575Z,10.57
2018-11-11T03:27:47.587Z,10.80
2018-11-11T03:29:22.585Z,11.90
2018-11-11T03:30:57.495Z,10.93
2018-11-11T03:32:32.337Z,11.00
2018-11-11T03:34:07.272Z,11.50
2018-11-11T03:35:42.202Z,11.43
2018-11-11T03:37:17.200Z,12.47
2018-11-11T03:38:52.056Z,11.27
2018-11-11T03:40:27.091Z,11.77
2018-11-11T03:42:03.779Z,11.73
2018-11-11T03:43:38.659Z,12.57
2018-11-11T03:45:15.205Z,11.57
2018-11-11T03:46:50.063Z,10.97
2018-11-11T03:48:25.035Z,11.60
2018-11-11T03:49:59.939Z,11.20
2018-11-11T03:51:34.897Z,12.47
2018-11-11T03:53:09.862Z,11.93
2018-11-11T03:54:44.809Z,12.50
2018-11-11T03:56:19.837Z,12.73
2018-11-11T03:57:54.796Z,12.27
2018-11-11T03:59:29.945Z,12.17
2018-11-11T04:01:05.401Z,12.40
2018-11-11T04:02:40.356Z,12.60
2018-11-11T04:04:15.319Z,12.43
2018-11-11T04:05:50.243Z,12.57
2018-11-11T04:07:25.132Z,12.27
2018-11-11T04:09:00.109Z,12.80
2018-11-11T04:10:35.022Z,12.37
2018-11-11T04:12:09.898Z,12.50
2018-11-11T04:13:44.848Z,12.63
2018-11-11T04:15:20.282Z,12.27
2018-11-11T04:16:55.161Z,12.00
2018-11-11T04:18:30.043Z,11.93
2018-11-11T04:20:05.307Z,11.80
2018-11-11T04:21:40.175Z,12.13
2018-11-11T04:23:15.056Z,11.83
2018-11-11T04:24:52.100Z,12.57
2018-11-11T04:26:27.056Z,11.40
2018-11-11T04:28:01.963Z,11.60
2018-11-11T04:29:37.047Z,11.23
2018-11-11T04:31:12.107Z,11.07
2018-11-11T04:32:47.019Z,12.07
2018-11-11T04:34:21.927Z,11.63
2018-11-11T04:35:56.834Z,11.80
2018-11-11T04:37:31.710Z,10.87
2018-11-11T04:39:09.119Z,11.20
2018-11-11T04:40:43.995Z,12.23
2018-11-11T04:42:18.867Z,11.53
2018-11-11T04:43:53.724Z,10.90
2018-11-11T04:45:28.688Z,10.13
2018-11-11T04:47:03.646Z,11.43
2018-11-11T04:48:38.534Z,11.37
2018-11-11T04:50:14.608Z,10.90
2018-11-11T04:51:49.556Z,11.33
2018-11-11T04:53:24.434Z,11.13
2018-11-11T04:54:59.310Z,10.50
2018-11-11T04:56:34.224Z,10.83
2018-11-11T04:58:09.113Z,11.10
2018-11-11T04:59:43.997Z,10.83
2018-11-11T05:01:18.905Z,10.27
2018-11-11T05:02:53.772Z,10.27
2018-11-11T05:04:28.800Z,11.23
2018-11-11T05:06:03.791Z,10.63
2018-11-11T05:07:38.683Z,9.90
2018-11-11T05:09:14.089Z,10.50
2018-11-11T05:10:48.984Z,10.70
2018-11-11T05:12:23.967Z,10.63
2018-11-11T05:13:58.828Z,10.70
2018-11-11T05:15:33.732Z,10.93
2018-11-11T05:17:08.710Z,10.53
2018-11-11T05:18:43.598Z,10.83
2018-11-11T05:20:18.506Z,9.93
2018-11-11T05:21:53.434Z,10.30
2018-11-11T05:23:28.272Z,10.43
2018-11-11T05:25:03.246Z,10.33
2018-11-11T05:26:38.228Z,9.90
2018-11-11T05:28:13.096Z,10.73
2018-11-11T05:29:47.984Z,10.83
2018-11-11T05:31:22.892Z,10.57
2018-11-11T05:32:57.802Z,11.13
2018-11-11T05:34:32.680Z,11.03
2018-11-11T05:36:07.578Z,10.80
2018-11-11T05:37:43.007Z,11.03
2018-11-11T05:39:17.867Z,11.40
2018-11-11T05:40:52.779Z,11.33
2018-11-11T05:42:27.656Z,9.97
2018-11-11T05:44:02.525Z,9.60
2018-11-11T05:45:37.456Z,10.47
2018-11-11T05:47:12.450Z,9.33
2018-11-11T05:48:47.319Z,10.27
2018-11-11T05:50:22.222Z,10.00
2018-11-11T05:51:57.263Z,9.63
2018-11-11T05:53:32.167Z,9.20
2018-11-11T05:55:07.629Z,8.30
2018-11-11T05:56:42.520Z,9.50
2018-11-11T05:58:17.573Z,8.90
2018-11-11T05:59:52.498Z,8.87
2018-11-11T06:01:27.471Z,8.83
2018-11-11T06:03:02.489Z,8.80
2018-11-11T06:04:37.367Z,8.23
2018-11-11T06:06:12.263Z,9.07
2018-11-11T06:07:47.143Z,9.03
2018-11-11T06:09:22.220Z,9.27
2018-11-11T06:10:57.494Z,9.30
2018-11-11T06:12:32.602Z,9.90
2018-11-11T06:14:08.364Z,9.17
2018-11-11T06:15:43.247Z,9.50
2018-11-11T06:17:18.153Z,9.00
2018-11-11T06:18:53.183Z,10.17
2018-11-11T06:20:28.050Z,9.80
2018-11-11T06:22:02.974Z,9.73
2018-11-11T06:23:37.853Z,9.73
2018-11-11T06:25:12.958Z,9.67
2018-11-11T06:26:48.035Z,9.30
2018-11-11T06:28:22.894Z,9.20
2018-11-11T06:29:57.801Z,8.50
2018-11-11T06:31:32.711Z,9.83
2018-11-11T06:33:07.707Z,9.67
2018-11-11T06:34:42.594Z,9.53
2018-11-11T06:36:17.501Z,9.87
2018-11-11T06:37:52.512Z,8.53
2018-11-11T06:39:27.436Z,8.93
2018-11-11T06:41:02.490Z,9.20
2018-11-11T06:42:37.610Z,10.33
2018-11-11T06:44:12.535Z,9.47
2018-11-11T06:45:47.425Z,8.87
2018-11-11T06:47:22.316Z,9.53
2018-11-11T06:48:57.188Z,8.73
2018-11-11T06:50:32.106Z,8.63
2018-11-11T06:52:07.044Z,10.13
2018-11-11T06:53:42.035Z,9.73
2018-11-11T06:55:16.910Z,9.47
2018-11-11T06:56:51.931Z,8.70
2018-11-11T06:58:26.801Z,9.10
2018-11-11T07:00:01.762Z,9.60
2018-11-11T07:01:36.738Z,9.00
2018-11-11T07:03:23.079Z,9.50
2018-11-11T07:04:57.981Z,9.23
2018-11-11T07:06:33.181Z,9.03
2018-11-11T07:08:08.050Z,8.83
2018-11-11T07:09:43.002Z,8.40
2018-11-11T07:11:18.509Z,8.77
2018-11-11T07:12:53.507Z,8.00
2018-11-11T07:14:28.359Z,8.70
2018-11-11T07:16:03.303Z,9.07
2018-11-11T07:17:38.208Z,7.73
2018-11-11T07:19:13.088Z,8.00
2018-11-11T07:20:47.988Z,7.40
2018-11-11T07:22:22.890Z,8.20
2018-11-11T07:23:57.772Z,7.47
2018-11-11T07:25:32.622Z,7.60
2018-11-11T07:27:07.505Z,7.50
2018-11-11T07:28:42.407Z,7.50
2018-11-11T07:30:17.359Z,7.43
2018-11-11T07:31:52.231Z,7.73
2018-11-11T07:33:27.302Z,7.67
2018-11-11T07:35:02.156Z,7.57
2018-11-11T07:36:37.159Z,7.40
2018-11-11T07:38:12.042Z,7.90
2018-11-11T07:39:46.939Z,7.90
2018-11-11T07:41:21.978Z,7.60
2018-11-11T07:42:57.057Z,7.53
2018-11-11T07:44:31.899Z,7.07
2018-11-11T07:46:06.795Z,6.70
2018-11-11T07:47:41.736Z,7.40
2018-11-11T07:49:16.656Z,6.70
2018-11-11T07:50:51.523Z,7.00
2018-11-11T07:52:26.402Z,7.40
2018-11-11T07:54:01.308Z,6.67
2018-11-11T07:55:36.267Z,6.57
2018-11-11T07:57:11.171Z,7.47
2018-11-11T07:58:46.065Z,6.20
2018-11-11T08:00:20.927Z,7.50
2018-11-11T08:01:55.871Z,7.37
2018-11-11T08:03:30.702Z,6.90
2018-11-11T08:05:05.768Z,6.57
2018-11-11T08:06:40.623Z,7.33
2018-11-11T08:08:15.494Z,7.10
2018-11-11T08:09:50.387Z,6.83
2018-11-11T08:11:36.705Z,7.47
2018-11-11T08:13:11.635Z,7.13
2018-11-11T08:14:46.581Z,6.73
2018-11-11T08:16:21.453Z,7.10
2018-11-11T08:17:56.728Z,7.83
2018-11-11T08:19:31.626Z,7.57
2018-11-11T08:21:06.548Z,6.97
2018-11-11T08:22:41.448Z,7.43
2018-11-11T08:24:16.359Z,6.60
2018-11-11T08:25:51.279Z,7.00
2018-11-11T08:27:26.299Z,6.27
2018-11-11T08:29:01.176Z,6.93
2018-11-11T08:30:37.950Z,6.93
2018-11-11T08:32:12.878Z,7.00
2018-11-11T08:33:48.004Z,6.23
2018-11-11T08:35:22.952Z,6.23
2018-11-11T08:36:57.852Z,6.47
2018-11-11T08:38:34.071Z,6.47
2018-11-11T08:40:09.745Z,6.13
2018-11-11T08:41:45.331Z,6.40
2018-11-11T08:43:20.208Z,6.60
2018-11-11T08:44:55.110Z,6.03
2018-11-11T08:46:29.984Z,6.30
2018-11-11T08:48:05.197Z,6.20
2018-11-11T08:49:40.497Z,6.50
2018-11-11T08:51:15.450Z,5.97
2018-11-11T08:52:50.311Z,5.90
2018-11-11T08:54:25.267Z,6.43
2018-11-11T08:56:01.193Z,6.57
2018-11-11T08:57:36.660Z,6.87
2018-11-11T08:59:11.518Z,6.87
2018-11-11T09:00:47.202Z,7.07
2018-11-11T09:02:22.155Z,6.37
2018-11-11T09:03:57.067Z,6.60
2018-11-11T09:05:31.927Z,6.57
2018-11-11T09:07:07.085Z,6.80
2018-11-11T09:08:41.994Z,6.50
2018-11-11T09:10:16.954Z,6.20
2018-11-11T09:11:51.804Z,6.33
2018-11-11T09:13:26.697Z,7.03
2018-11-11T09:15:01.684Z,7.13
2018-11-11T09:16:36.567Z,6.90
2018-11-11T09:18:11.471Z,7.60
2018-11-11T09:19:46.336Z,7.50
2018-11-11T09:21:21.313Z,7.20
2018-11-11T09:22:56.142Z,6.97
2018-11-11T09:24:31.118Z,7.47
2018-11-11T09:26:06.249Z,7.07
2018-11-11T09:27:42.068Z,7.33
2018-11-11T09:29:16.957Z,7.17
2018-11-11T09:30:51.859Z,8.13
2018-11-11T09:32:26.811Z,7.73
2018-11-11T09:34:08.271Z,7.20
2018-11-11T09:35:43.246Z,6.90
2018-11-11T09:37:18.135Z,7.90
2018-11-11T09:38:53.005Z,7.33
2018-11-11T09:40:27.904Z,6.57
2018-11-11T09:42:02.876Z,7.20
2018-11-11T09:43:37.873Z,7.10
2018-11-11T09:45:14.228Z,8.07
2018-11-11T09:46:49.177Z,7.53
2018-11-11T09:48:24.074Z,7.73
2018-11-11T09:49:59.239Z,7.80
2018-11-11T09:51:34.223Z,7.80
2018-11-11T09:53:09.144Z,7.27
2018-11-11T09:54:44.061Z,7.90
2018-11-11T09:56:19.027Z,7.63
2018-11-11T09:57:53.930Z,7.97
2018-11-11T09:59:28.828Z,7.50
2018-11-11T10:01:03.906Z,7.90
2018-11-11T10:02:38.859Z,7.50
2018-11-11T10:04:21.516Z,7.40
2018-11-11T10:05:59.851Z,8.00
2018-11-11T10:07:40.820Z,7.33
2018-11-11T10:10:22.908Z,7.33
2018-11-11T10:12:37.267Z,7.57
2018-11-11T10:14:17.380Z,7.53
2018-11-11T10:16:02.851Z,7.00
2018-11-11T10:18:41.008Z,7.50
2018-11-11T10:20:22.320Z,7.57
2018-11-11T10:22:01.748Z,7.40
2018-11-11T10:23:48.126Z,6.83
2018-11-11T10:25:30.434Z,7.57
2018-11-11T10:27:09.045Z,7.40
2018-11-11T10:28:49.230Z,7.70
2018-11-11T10:30:48.380Z,7.30
2018-11-11T10:32:40.837Z,7.20
2018-11-11T10:34:18.886Z,7.10
2018-11-11T10:35:59.032Z,7.30
2018-11-11T10:37:38.453Z,7.07
2018-11-11T10:40:17.459Z,7.50
2018-11-11T10:41:56.858Z,7.53
2018-11-11T10:43:39.801Z,7.43
2018-11-11T10:45:24.189Z,7.77
2018-11-11T10:47:10.440Z,7.47
2018-11-11T10:48:52.570Z,7.20
2018-11-11T10:50:30.297Z,8.30
2018-11-11T10:52:05.338Z,8.20
2018-11-11T10:53:40.224Z,8.83
2018-11-11T10:55:15.120Z,8.17
2018-11-11T10:56:50.176Z,8.40
2018-11-11T10:58:25.496Z,8.27
2018-11-11T11:00:00.743Z,8.43
2018-11-11T11:01:42.082Z,8.50
2018-11-11T11:03:22.413Z,8.87
2018-11-11T11:05:02.620Z,7.90
2018-11-11T11:06:43.084Z,8.47
2018-11-11T11:08:18.720Z,9.57
2018-11-11T11:09:53.631Z,8.43
2018-11-11T11:11:28.755Z,8.70
2018-11-11T11:13:03.778Z,8.87
2018-11-11T11:14:38.654Z,9.13
2018-11-11T11:16:13.579Z,8.53
2018-11-11T11:17:49.134Z,8.53
2018-11-11T11:19:24.413Z,8.20
2018-11-11T11:20:59.267Z,8.17
2018-11-11T11:22:34.166Z,8.13
2018-11-11T11:24:09.017Z,7.90
2018-11-11T11:25:44.048Z,8.60
2018-11-11T11:27:18.960Z,7.60
2018-11-11T11:28:53.768Z,8.20
2018-11-11T11:30:28.619Z,8.03
2018-11-11T11:32:03.650Z,7.70
2018-11-11T11:33:39.403Z,8.23
2018-11-11T11:35:15.454Z,7.77
2018-11-11T11:36:50.427Z,7.87
2018-11-11T11:38:25.371Z,9.03
2018-11-11T11:40:00.186Z,7.80
2018-11-11T11:41:35.323Z,8.47
2018-11-11T11:43:10.306Z,7.97
2018-11-11T11:44:45.179Z,7.97
2018-11-11T11:46:20.127Z,8.27
2018-11-11T11:47:55.134Z,7.93
2018-11-11T11:49:30.176Z,8.03
2018-11-11T11:51:05.229Z,7.47
2018-11-11T11:52:40.333Z,8.20
2018-11-11T11:54:15.318Z,8.60
2018-11-11T11:55:50.273Z,8.20
2018-11-11T11:57:25.211Z,8.37
2018-11-11T11:59:00.079Z,7.90
2018-11-11T12:00:35.043Z,7.73
2018-11-11T12:02:09.968Z,7.47
2018-11-11T12:03:44.876Z,8.23
2018-11-11T12:05:19.761Z,8.10
2018-11-11T12:06:54.828Z,7.47
2018-11-11T12:08:29.969Z,7.23
2018-11-11T12:10:06.600Z,9.00
2018-11-11T12:11:41.670Z,7.63
2018-11-11T12:13:17.171Z,7.20
2018-11-11T12:14:52.064Z,7.00
2018-11-11T12:16:26.954Z,7.43
2018-11-11T12:18:01.939Z,7.20
2018-11-11T12:19:36.838Z,6.77
2018-11-11T12:21:11.864Z,7.20
2018-11-11T12:22:46.798Z,6.73
2018-11-11T12:24:21.719Z,6.73
2018-11-11T12:25:56.580Z,6.37
2018-11-11T12:27:31.633Z,6.80
2018-11-11T12:29:06.574Z,7.03
2018-11-11T12:30:41.550Z,7.23
2018-11-11T12:32:16.420Z,7.10
2018-11-11T12:33:51.487Z,6.63
2018-11-11T12:35:26.367Z,7.03
2018-11-11T12:37:01.255Z,7.57
2018-11-11T12:38:36.307Z,6.97
2018-11-11T12:40:12.185Z,6.40
2018-11-11T12:41:47.220Z,6.83
2018-11-11T12:43:22.141Z,7.87
2018-11-11T12:44:57.123Z,6.93
2018-11-11T12:46:32.062Z,7.10
2018-11-11T12:48:07.026Z,7.00
2018-11-11T12:49:41.919Z,7.40
2018-11-11T12:51:16.801Z,6.80
2018-11-11T12:52:51.784Z,6.90
2018-11-11T12:54:26.655Z,6.63
2018-11-11T12:56:01.539Z,7.20
2018-11-11T12:57:36.778Z,6.50
2018-11-11T12:59:11.665Z,6.17
2018-11-11T13:00:46.602Z,6.30
2018-11-11T13:02:21.486Z,6.63
2018-11-11T13:03:56.515Z,6.33
2018-11-11T13:05:31.778Z,7.00
2018-11-11T13:07:06.919Z,6.30
2018-11-11T13:08:44.502Z,6.00
2018-11-11T13:10:19.476Z,6.30
2018-11-11T13:11:54.451Z,5.97
2018-11-11T13:13:29.314Z,6.50
2018-11-11T13:15:04.236Z,5.87
2018-11-11T13:16:39.221Z,6.53
2018-11-11T13:18:14.132Z,6.60
2018-11-11T13:19:49.117Z,6.50
2018-11-11T13:21:23.982Z,6.30
2018-11-11T13:22:59.019Z,5.37
2018-11-11T13:24:33.827Z,5.93
2018-11-11T13:26:08.718Z,6.47
2018-11-11T13:27:43.595Z,5.73
2018-11-11T13:29:18.498Z,6.27
2018-11-11T13:30:53.355Z,6.57
2018-11-11T13:32:28.283Z,5.43
2018-11-11T13:34:03.249Z,5.30
2018-11-11T13:35:39.010Z,5.73
2018-11-11T13:37:13.906Z,5.80
2018-11-11T13:38:48.803Z,5.63
2018-11-11T13:40:23.671Z,5.57
2018-11-11T13:41:58.524Z,6.00
2018-11-11T13:43:33.536Z,6.53
2018-11-11T13:45:11.612Z,6.00
2018-11-11T13:46:46.556Z,6.03
2018-11-11T13:48:21.455Z,6.17
2018-11-11T13:49:56.450Z,6.40
2018-11-11T13:51:31.367Z,5.90
2018-11-11T13:53:06.304Z,5.87
2018-11-11T13:54:41.207Z,5.93
2018-11-11T13:56:16.195Z,5.97
2018-11-11T13:57:51.447Z,5.50
2018-11-11T13:59:26.386Z,5.07
2018-11-11T14:01:01.350Z,5.30
2018-11-11T14:02:36.353Z,5.60
2018-11-11T14:04:11.218Z,5.33
2018-11-11T14:05:46.114Z,5.43
2018-11-11T14:07:20.971Z,6.40
2018-11-11T14:08:55.881Z,5.40
2018-11-11T14:10:30.719Z,5.23
2018-11-11T14:12:05.716Z,4.90
2018-11-11T14:13:40.667Z,4.93
2018-11-11T14:15:24.840Z,4.33
2018-11-11T14:16:59.758Z,4.87
2018-11-11T14:18:34.819Z,4.90
2018-11-11T14:20:11.081Z,4.33
2018-11-11T14:21:46.002Z,4.03
2018-11-11T14:23:20.879Z,4.80
2018-11-11T14:24:55.846Z,4.23
2018-11-11T14:26:30.807Z,3.57
2018-11-11T14:28:06.104Z,4.10
2018-11-11T14:29:41.060Z,4.10
2018-11-11T14:31:15.922Z,3.77
2018-11-11T14:32:51.662Z,3.87
2018-11-11T14:34:26.689Z,3.93
2018-11-11T14:36:01.644Z,4.13
2018-11-11T14:37:36.948Z,4.37
2018-11-11T14:39:13.233Z,3.70
2018-11-11T14:40:48.117Z,4.40
2018-11-11T14:42:22.986Z,3.80
2018-11-11T14:43:57.932Z,3.87
2018-11-11T14:45:32.795Z,3.73
2018-11-11T14:47:07.692Z,4.27
2018-11-11T14:48:42.808Z,3.87
2018-11-11T14:50:18.639Z,3.63
2018-11-11T14:51:53.477Z,3.63
2018-11-11T14:53:28.380Z,3.93
2018-11-11T14:55:03.275Z,3.37
2018-11-11T14:56:38.222Z,3.70
2018-11-11T14:58:13.298Z,3.90
2018-11-11T14:59:48.155Z,4.30
2018-11-11T15:01:23.019Z,4.17
2018-11-11T15:03:10.427Z,3.77
2018-11-11T15:04:45.439Z,4.20
2018-11-11T15:06:20.349Z,4.10
2018-11-11T15:07:55.217Z,4.17
2018-11-11T15:09:30.102Z,4.27
2018-11-11T15:11:05.284Z,4.20
2018-11-11T15:12:40.210Z,4.27
2018-11-11T15:14:15.140Z,4.23
2018-11-11T15:15:50.019Z,5.10
2018-11-11T15:17:24.911Z,4.50
2018-11-11T15:18:59.919Z,4.40
2018-11-11T15:20:35.162Z,4.70
2018-11-11T15:22:09.886Z,4.40
2018-11-11T15:23:44.788Z,4.30
2018-11-11T15:25:20.920Z,5.00
2018-11-11T15:26:55.805Z,4.93
2018-11-11T15:28:30.674Z,4.83
2018-11-11T15:30:07.305Z,5.17
2018-11-11T15:31:42.246Z,5.33
2018-11-11T15:33:17.187Z,6.83
2018-11-11T15:34:52.095Z,6.27
2018-11-11T15:36:26.941Z,5.40
2018-11-11T15:38:01.959Z,5.20
2018-11-11T15:39:37.009Z,4.60
2018-11-11T15:41:11.980Z,4.50
2018-11-11T15:42:46.811Z,4.33
2018-11-11T15:44:21.864Z,4.90
2018-11-11T15:45:56.785Z,5.30
2018-11-11T15:47:31.666Z,4.80
2018-11-11T15:49:07.004Z,4.70
2018-11-11T15:50:41.917Z,5.03
2018-11-11T15:52:16.850Z,4.90
2018-11-11T15:53:51.849Z,5.53
2018-11-11T15:55:27.908Z,7.00
2018-11-11T15:57:02.847Z,5.47
2018-11-11T15:58:37.784Z,6.07
2018-11-11T16:00:14.998Z,6.23
2018-11-11T16:01:49.938Z,5.80
2018-11-11T16:03:24.869Z,5.63
2018-11-11T16:04:59.808Z,5.40
2018-11-11T16:06:34.825Z,5.17
2018-11-11T16:08:09.658Z,5.33
2018-11-11T16:09:44.563Z,6.57
2018-11-11T16:11:19.419Z,5.17
2018-11-11T16:12:54.393Z,5.83
2018-11-11T16:14:29.370Z,5.57
2018-11-11T16:16:04.460Z,5.63
2018-11-11T16:17:39.538Z,5.00
2018-11-11T16:19:14.545Z,5.30
2018-11-11T16:20:49.489Z,5.00
2018-11-11T16:22:24.476Z,5.20
2018-11-11T16:23:59.353Z,5.83
2018-11-11T16:25:34.550Z,6.00
2018-11-11T16:27:09.438Z,5.27
2018-11-11T16:28:44.380Z,5.23
2018-11-11T16:30:20.666Z,6.87
2018-11-11T16:31:55.543Z,5.50
2018-11-11T16:33:30.421Z,5.00
2018-11-11T16:35:06.876Z,5.40
2018-11-11T16:36:41.780Z,5.47
2018-11-11T16:38:16.635Z,5.77
2018-11-11T16:39:51.759Z,8.23
2018-11-11T16:41:26.808Z,6.03
2018-11-11T16:43:01.752Z,6.57
2018-11-11T16:44:36.776Z,8.40
2018-11-11T16:46:11.716Z,7.47
2018-11-11T16:47:46.623Z,7.00
2018-11-11T16:49:21.529Z,6.50
2018-11-11T16:50:56.470Z,8.87
2018-11-11T16:52:31.456Z,7.40
2018-11-11T16:54:06.472Z,8.33
2018-11-11T16:55:41.403Z,8.13
2018-11-11T16:57:16.335Z,7.90
2018-11-11T16:58:51.222Z,9.27
2018-11-11T17:00:27.368Z,8.13
2018-11-11T17:02:02.236Z,8.10
2018-11-11T17:03:37.110Z,6.57
2018-11-11T17:05:13.719Z,9.13
2018-11-11T17:06:48.636Z,6.97
2018-11-11T17:08:23.557Z,7.23
2018-11-11T17:09:58.446Z,8.50
2018-11-11T17:11:33.371Z,10.30
2018-11-11T17:13:09.982Z,8.50
2018-11-11T17:14:53.955Z,9.83
2018-11-11T17:16:31.391Z,10.27
2018-11-11T17:18:06.394Z,10.43
2018-11-11T17:19:41.337Z,10.47
2018-11-11T17:21:16.301Z,11.20
2018-11-11T17:22:52.099Z,10.53
2018-11-11T17:24:26.947Z,10.90
2018-11-11T17:26:01.884Z,10.57
2018-11-11T17:27:36.799Z,11.03
2018-11-11T17:29:11.746Z,9.53
2018-11-11T17:30:46.742Z,8.63
2018-11-11T17:32:21.591Z,7.83
2018-11-11T17:33:56.410Z,7.57
2018-11-11T17:35:31.311Z,8.33
2018-11-11T17:37:06.531Z,7.07
2018-11-11T17:38:41.511Z,7.43
2018-11-11T17:40:18.784Z,7.10
2018-11-11T17:41:53.602Z,7.87
2018-11-11T17:43:28.586Z,8.17
2018-11-11T17:45:03.564Z,8.47
2018-11-11T17:46:38.536Z,8.20
2018-11-11T17:48:13.473Z,8.77
2018-11-11T17:49:48.532Z,8.70
2018-11-11T17:51:23.461Z,10.13
2018-11-11T17:52:58.954Z,10.13
2018-11-11T17:54:34.044Z,9.80
2018-11-11T17:56:09.450Z,9.07
2018-11-11T17:57:44.790Z,9.83
2018-11-11T17:59:19.735Z,8.90
2018-11-11T18:00:54.661Z,9.03
2018-11-11T18:02:29.588Z,11.80
2018-11-11T18:04:04.601Z,9.87
2018-11-11T18:05:39.544Z,9.83
2018-11-11T18:07:14.668Z,9.10
2018-11-11T18:08:49.574Z,9.40
2018-11-11T18:10:25.240Z,9.27
2018-11-11T18:12:00.214Z,9.10
2018-11-11T18:13:35.117Z,11.93
2018-11-11T18:15:11.441Z,11.77
2018-11-11T18:16:46.363Z,12.87
2018-11-11T18:18:21.296Z,13.23
2018-11-11T18:19:56.184Z,12.13
2018-11-11T18:21:31.136Z,12.17
2018-11-11T18:23:06.108Z,12.90
2018-11-11T18:24:41.078Z,13.73
2018-11-11T18:26:15.992Z,14.20
2018-11-11T18:27:51.231Z,13.27
2018-11-11T18:29:26.094Z,14.27
2018-11-11T18:31:01.044Z,14.73
2018-11-11T18:32:35.930Z,14.40
2018-11-11T18:34:10.858Z,14.23
2018-11-11T18:35:45.776Z,16.50
2018-11-11T18:37:20.754Z,13.73
2018-11-11T18:38:55.686Z,13.40
2018-11-11T18:40:30.603Z,13.73
2018-11-11T18:42:05.708Z,13.43
2018-11-11T18:43:40.612Z,13.77
2018-11-11T18:45:16.852Z,14.10
2018-11-11T18:46:51.866Z,15.03
2018-11-11T18:48:26.766Z,13.67
2018-11-11T18:50:01.860Z,13.90
2018-11-11T18:51:36.757Z,14.97
2018-11-11T18:53:11.642Z,18.67
2018-11-11T18:54:46.560Z,15.03
2018-11-11T18:56:21.523Z,13.40
2018-11-11T18:57:56.384Z,11.90
2018-11-11T18:59:31.263Z,11.83
2018-11-11T19:01:06.244Z,12.17
2018-11-11T19:02:41.343Z,11.20
2018-11-11T19:04:16.224Z,11.40
2018-11-11T19:05:51.119Z,11.57
2018-11-11T19:07:25.995Z,11.40
2018-11-11T19:09:01.055Z,11.20
2018-11-11T19:10:36.325Z,12.07
2018-11-11T19:12:11.202Z,12.60
2018-11-11T19:13:46.145Z,15.47
2018-11-11T19:15:21.647Z,14.77
2018-11-11T19:16:56.537Z,15.70
2018-11-11T19:18:31.528Z,15.03
2018-11-11T19:20:08.331Z,14.10
2018-11-11T19:21:43.341Z,15.47
2018-11-11T19:23:18.212Z,16.60
2018-11-11T19:24:53.281Z,15.80
2018-11-11T19:26:28.196Z,16.63
2018-11-11T19:28:03.381Z,15.67
2018-11-11T19:29:38.263Z,18.23
2018-11-11T19:31:13.231Z,18.10
2018-11-11T19:32:48.678Z,18.07
2018-11-11T19:34:23.584Z,18.70
2018-11-11T19:35:58.482Z,17.07
2018-11-11T19:37:33.424Z,15.43
2018-11-11T19:39:09.822Z,15.27
2018-11-11T19:40:44.702Z,16.30
2018-11-11T19:42:19.603Z,16.43
2018-11-11T19:43:54.552Z,17.67
2018-11-11T19:45:30.215Z,16.00
2018-11-11T19:47:05.490Z,16.43
2018-11-11T19:48:40.669Z,17.20
2018-11-11T19:50:16.832Z,18.73
2018-11-11T19:51:51.831Z,17.03
2018-11-11T19:53:26.843Z,15.67
2018-11-11T19:55:01.722Z,15.33
2018-11-11T19:56:36.649Z,15.60
2018-11-11T19:58:11.522Z,13.93
2018-11-11T19:59:46.422Z,15.70
2018-11-11T20:01:21.503Z,15.83
2018-11-11T20:02:57.218Z,16.50
2018-11-11T20:04:32.111Z,16.40
2018-11-11T20:06:07.033Z,15.77
2018-11-11T20:07:42.981Z,14.53
2018-11-11T20:09:17.932Z,15.73
2018-11-11T20:10:52.967Z,17.10
2018-11-11T20:12:27.814Z,15.13
2018-11-11T20:14:05.045Z,17.20
2018-11-11T20:15:39.996Z,17.13
2018-11-11T20:17:14.883Z,16.63
2018-11-11T20:18:49.845Z,18.13
2018-11-11T20:20:30.447Z,17.50
2018-11-11T20:22:05.454Z,17.70
2018-11-11T20:23:40.444Z,17.30
2018-11-11T20:25:16.199Z,21.33
2018-11-11T20:26:51.101Z,18.30
2018-11-11T20:28:25.986Z,21.03
2018-11-11T20:30:00.866Z,18.73
2018-11-11T20:31:35.870Z,20.03
2018-11-11T20:33:10.655Z,18.90
2018-11-11T20:34:45.651Z,19.20
2018-11-11T20:36:20.539Z,18.20
2018-11-11T20:37:55.482Z,17.70
2018-11-11T20:39:30.355Z,18.67
2018-11-11T20:41:05.428Z,18.27
2018-11-11T20:42:40.917Z,16.97
2018-11-11T20:44:15.834Z,17.27
2018-11-11T20:45:50.739Z,17.00
2018-11-11T20:47:25.783Z,17.93
2018-11-11T20:49:00.649Z,18.03
2018-11-11T20:50:35.619Z,16.23
2018-11-11T20:52:10.667Z,15.50
2018-11-11T20:53:45.583Z,17.37
2018-11-11T20:55:20.996Z,16.73